sensor_id;sensor_type;location;lat;lon;timestamp;pressure;altitude;pressure_sealevel;temperature;humidity
43741;BME280;29352;48.708;9.290;2024-03-08T00:02:24;97709.97;;;-1.08;65.87
43741;BME280;29352;48.708;9.290;2024-03-08T00:04:50;97714.63;;;-1.57;67.13
43741;BME280;29352;48.708;9.290;2024-03-08T00:07:15;97711.97;;;-1.47;66.75
43741;BME280;29352;48.708;9.290;2024-03-08T00:09:41;97697.13;;;-1.66;67.25
43741;BME280;29352;48.708;9.290;2024-03-08T00:12:07;97692.50;;;-1.45;66.91
43741;BME280;29352;48.708;9.290;2024-03-08T00:14:32;97694.31;;;-1.18;65.89
43741;BME280;29352;48.708;9.290;2024-03-08T00:16:58;97688.97;;;-1.63;66.88
43741;BME280;29352;48.708;9.290;2024-03-08T00:19:24;97688.72;;;-1.70;67.01
43741;BME280;29352;48.708;9.290;2024-03-08T00:21:49;97694.44;;;-1.37;66.56
43741;BME280;29352;48.708;9.290;2024-03-08T00:24:15;97701.25;;;-1.63;66.97
43741;BME280;29352;48.708;9.290;2024-03-08T00:26:41;97696.59;;;-1.32;66.39
43741;BME280;29352;48.708;9.290;2024-03-08T00:29:07;97700.72;;;-1.57;66.32
43741;BME280;29352;48.708;9.290;2024-03-08T00:31:33;97701.91;;;-1.52;66.58
43741;BME280;29352;48.708;9.290;2024-03-08T00:33:58;97701.16;;;-2.48;68.68
43741;BME280;29352;48.708;9.290;2024-03-08T00:36:24;97696.84;;;-2.10;68.29
43741;BME280;29352;48.708;9.290;2024-03-08T00:38:50;97695.03;;;-1.53;66.69
43741;BME280;29352;48.708;9.290;2024-03-08T00:41:15;97685.31;;;-1.80;67.11
43741;BME280;29352;48.708;9.290;2024-03-08T00:43:42;97685.19;;;-1.78;67.03
43741;BME280;29352;48.708;9.290;2024-03-08T00:46:07;97686.56;;;-1.74;66.85
43741;BME280;29352;48.708;9.290;2024-03-08T00:48:33;97677.16;;;-1.67;66.47
43741;BME280;29352;48.708;9.290;2024-03-08T00:50:58;97682.44;;;-1.86;67.15
43741;BME280;29352;48.708;9.290;2024-03-08T00:53:24;97678.41;;;-1.71;66.87
43741;BME280;29352;48.708;9.290;2024-03-08T00:55:49;97676.94;;;-1.83;67.16
43741;BME280;29352;48.708;9.290;2024-03-08T00:58:15;97664.78;;;-1.75;66.50
43741;BME280;29352;48.708;9.290;2024-03-08T01:00:40;97674.22;;;-2.01;67.54
43741;BME280;29352;48.708;9.290;2024-03-08T01:03:07;97665.94;;;-1.97;67.39
43741;BME280;29352;48.708;9.290;2024-03-08T01:05:33;97670.34;;;-1.87;67.08
43741;BME280;29352;48.708;9.290;2024-03-08T01:08:00;97663.69;;;-1.72;66.44
43741;BME280;29352;48.708;9.290;2024-03-08T01:10:29;97661.09;;;-1.82;67.08
43741;BME280;29352;48.708;9.290;2024-03-08T01:12:54;97651.53;;;-1.63;66.61
43741;BME280;29352;48.708;9.290;2024-03-08T01:15:22;97658.16;;;-1.69;66.71
43741;BME280;29352;48.708;9.290;2024-03-08T01:17:48;97654.97;;;-1.63;66.45
43741;BME280;29352;48.708;9.290;2024-03-08T01:20:15;97654.25;;;-1.55;66.43
43741;BME280;29352;48.708;9.290;2024-03-08T01:22:41;97648.34;;;-1.95;66.68
43741;BME280;29352;48.708;9.290;2024-03-08T01:25:06;97652.28;;;-1.81;66.64
43741;BME280;29352;48.708;9.290;2024-03-08T01:27:34;97639.44;;;-1.74;66.75
43741;BME280;29352;48.708;9.290;2024-03-08T01:30:00;97643.69;;;-2.10;67.32
43741;BME280;29352;48.708;9.290;2024-03-08T01:32:26;97640.31;;;-2.21;67.59
43741;BME280;29352;48.708;9.290;2024-03-08T01:34:52;97639.78;;;-1.87;66.74
43741;BME280;29352;48.708;9.290;2024-03-08T01:37:17;97635.25;;;-1.95;66.74
43741;BME280;29352;48.708;9.290;2024-03-08T01:39:43;97631.19;;;-2.07;67.33
43741;BME280;29352;48.708;9.290;2024-03-08T01:42:08;97626.59;;;-2.52;68.12
43741;BME280;29352;48.708;9.290;2024-03-08T01:44:34;97621.94;;;-2.68;68.08
43741;BME280;29352;48.708;9.290;2024-03-08T01:47:00;97620.59;;;-2.15;67.17
43741;BME280;29352;48.708;9.290;2024-03-08T01:49:27;97615.97;;;-1.94;66.56
43741;BME280;29352;48.708;9.290;2024-03-08T01:51:54;97600.56;;;-1.97;65.98
43741;BME280;29352;48.708;9.290;2024-03-08T01:54:22;97600.91;;;-2.09;66.40
43741;BME280;29352;48.708;9.290;2024-03-08T01:56:49;97603.44;;;-1.90;66.04
43741;BME280;29352;48.708;9.290;2024-03-08T01:59:15;97590.94;;;-2.43;66.28
43741;BME280;29352;48.708;9.290;2024-03-08T02:01:42;97599.56;;;-2.23;66.53
43741;BME280;29352;48.708;9.290;2024-03-08T02:04:08;97591.78;;;-1.96;66.16
43741;BME280;29352;48.708;9.290;2024-03-08T02:06:35;97585.19;;;-2.00;66.01
43741;BME280;29352;48.708;9.290;2024-03-08T02:09:00;97586.50;;;-2.23;66.30
43741;BME280;29352;48.708;9.290;2024-03-08T02:11:32;97579.16;;;-2.57;66.59
43741;BME280;29352;48.708;9.290;2024-03-08T02:13:59;97582.34;;;-2.16;65.96
43741;BME280;29352;48.708;9.290;2024-03-08T02:16:24;97573.72;;;-2.36;66.51
43741;BME280;29352;48.708;9.290;2024-03-08T02:18:50;97569.59;;;-2.39;66.24
43741;BME280;29352;48.708;9.290;2024-03-08T02:21:18;97573.06;;;-2.38;66.71
43741;BME280;29352;48.708;9.290;2024-03-08T02:23:44;97571.72;;;-2.52;66.34
43741;BME280;29352;48.708;9.290;2024-03-08T02:26:10;97571.28;;;-2.38;66.42
43741;BME280;29352;48.708;9.290;2024-03-08T02:28:36;97564.81;;;-2.53;66.75
43741;BME280;29352;48.708;9.290;2024-03-08T02:31:02;97568.56;;;-2.18;65.75
43741;BME280;29352;48.708;9.290;2024-03-08T02:33:28;97561.72;;;-2.19;65.41
43741;BME280;29352;48.708;9.290;2024-03-08T02:35:54;97555.13;;;-2.23;65.96
43741;BME280;29352;48.708;9.290;2024-03-08T02:38:23;97560.63;;;-2.26;66.05
43741;BME280;29352;48.708;9.290;2024-03-08T02:40:51;97550.28;;;-2.65;67.01
43741;BME280;29352;48.708;9.290;2024-03-08T02:43:19;97558.00;;;-2.73;66.39
43741;BME280;29352;48.708;9.290;2024-03-08T02:45:47;97549.91;;;-2.23;65.77
43741;BME280;29352;48.708;9.290;2024-03-08T02:48:14;97552.53;;;-2.33;65.67
43741;BME280;29352;48.708;9.290;2024-03-08T02:50:41;97548.59;;;-2.47;65.96
43741;BME280;29352;48.708;9.290;2024-03-08T02:53:13;97544.44;;;-2.40;66.17
43741;BME280;29352;48.708;9.290;2024-03-08T02:55:40;97547.50;;;-2.54;66.38
43741;BME280;29352;48.708;9.290;2024-03-08T02:58:07;97545.72;;;-2.63;66.37
43741;BME280;29352;48.708;9.290;2024-03-08T03:00:37;97539.84;;;-2.65;66.25
43741;BME280;29352;48.708;9.290;2024-03-08T03:03:04;97546.19;;;-2.87;67.10
43741;BME280;29352;48.708;9.290;2024-03-08T03:05:30;97539.78;;;-2.55;66.17
43741;BME280;29352;48.708;9.290;2024-03-08T03:07:56;97539.34;;;-3.27;67.71
43741;BME280;29352;48.708;9.290;2024-03-08T03:10:23;97538.97;;;-2.56;66.51
43741;BME280;29352;48.708;9.290;2024-03-08T03:12:49;97532.53;;;-2.52;66.45
43741;BME280;29352;48.708;9.290;2024-03-08T03:15:16;97533.09;;;-2.58;66.50
43741;BME280;29352;48.708;9.290;2024-03-08T03:17:49;97530.56;;;-2.50;66.12
43741;BME280;29352;48.708;9.290;2024-03-08T03:20:19;97530.94;;;-2.92;67.67
43741;BME280;29352;48.708;9.290;2024-03-08T03:22:52;97527.72;;;-2.66;67.19
43741;BME280;29352;48.708;9.290;2024-03-08T03:25:19;97533.84;;;-2.95;67.39
43741;BME280;29352;48.708;9.290;2024-03-08T03:27:50;97529.41;;;-2.65;66.92
43741;BME280;29352;48.708;9.290;2024-03-08T03:30:17;97533.50;;;-2.63;66.72
43741;BME280;29352;48.708;9.290;2024-03-08T03:32:47;97531.38;;;-2.87;67.52
43741;BME280;29352;48.708;9.290;2024-03-08T03:35:14;97516.66;;;-2.97;67.28
43741;BME280;29352;48.708;9.290;2024-03-08T03:37:42;97509.91;;;-2.90;67.75
43741;BME280;29352;48.708;9.290;2024-03-08T03:40:11;97512.69;;;-2.45;66.39
43741;BME280;29352;48.708;9.290;2024-03-08T03:42:38;97519.75;;;-2.55;66.34
43741;BME280;29352;48.708;9.290;2024-03-08T03:45:05;97522.19;;;-2.53;66.87
43741;BME280;29352;48.708;9.290;2024-03-08T03:47:31;97513.31;;;-2.80;67.09
43741;BME280;29352;48.708;9.290;2024-03-08T03:49:57;97521.47;;;-3.12;68.21
43741;BME280;29352;48.708;9.290;2024-03-08T03:52:27;97505.25;;;-2.87;67.39
43741;BME280;29352;48.708;9.290;2024-03-08T03:54:52;97513.63;;;-2.83;67.36
43741;BME280;29352;48.708;9.290;2024-03-08T03:57:18;97503.13;;;-2.73;66.95
43741;BME280;29352;48.708;9.290;2024-03-08T03:59:45;97502.19;;;-2.72;66.84
43741;BME280;29352;48.708;9.290;2024-03-08T04:02:12;97507.06;;;-3.16;67.75
43741;BME280;29352;48.708;9.290;2024-03-08T04:04:38;97506.22;;;-3.46;68.16
43741;BME280;29352;48.708;9.290;2024-03-08T04:07:03;97511.00;;;-2.83;67.65
43741;BME280;29352;48.708;9.290;2024-03-08T04:09:30;97517.22;;;-3.13;67.95
43741;BME280;29352;48.708;9.290;2024-03-08T04:11:55;97510.50;;;-3.06;68.13
43741;BME280;29352;48.708;9.290;2024-03-08T04:14:22;97509.06;;;-2.71;67.30
43741;BME280;29352;48.708;9.290;2024-03-08T04:16:48;97498.72;;;-2.63;66.91
43741;BME280;29352;48.708;9.290;2024-03-08T04:19:14;97503.03;;;-2.81;67.51
43741;BME280;29352;48.708;9.290;2024-03-08T04:21:39;97501.69;;;-2.95;67.80
43741;BME280;29352;48.708;9.290;2024-03-08T04:24:05;97493.47;;;-3.10;68.11
43741;BME280;29352;48.708;9.290;2024-03-08T04:26:31;97498.38;;;-2.97;67.77
43741;BME280;29352;48.708;9.290;2024-03-08T04:28:57;97490.13;;;-2.93;68.08
43741;BME280;29352;48.708;9.290;2024-03-08T04:31:22;97487.00;;;-3.06;67.81
43741;BME280;29352;48.708;9.290;2024-03-08T04:33:48;97484.09;;;-3.03;67.89
43741;BME280;29352;48.708;9.290;2024-03-08T04:36:13;97488.66;;;-3.24;68.43
43741;BME280;29352;48.708;9.290;2024-03-08T04:38:42;97480.13;;;-3.17;68.27
43741;BME280;29352;48.708;9.290;2024-03-08T04:41:08;97481.59;;;-2.85;67.51
43741;BME280;29352;48.708;9.290;2024-03-08T04:43:35;97481.78;;;-3.35;68.44
43741;BME280;29352;48.708;9.290;2024-03-08T04:46:01;97486.72;;;-3.32;68.73
43741;BME280;29352;48.708;9.290;2024-03-08T04:48:29;97475.84;;;-2.98;67.83
43741;BME280;29352;48.708;9.290;2024-03-08T04:50:55;97477.63;;;-2.99;67.59
43741;BME280;29352;48.708;9.290;2024-03-08T04:53:21;97485.72;;;-2.82;67.28
43741;BME280;29352;48.708;9.290;2024-03-08T04:55:46;97473.84;;;-2.77;66.88
43741;BME280;29352;48.708;9.290;2024-03-08T04:58:12;97489.22;;;-3.30;68.16
43741;BME280;29352;48.708;9.290;2024-03-08T05:00:37;97480.69;;;-3.13;67.88
43741;BME280;29352;48.708;9.290;2024-03-08T05:03:03;97471.91;;;-3.41;68.34
43741;BME280;29352;48.708;9.290;2024-03-08T05:05:30;97474.31;;;-3.01;67.77
43741;BME280;29352;48.708;9.290;2024-03-08T05:07:56;97470.41;;;-3.34;68.21
43741;BME280;29352;48.708;9.290;2024-03-08T05:10:21;97472.00;;;-3.04;68.09
43741;BME280;29352;48.708;9.290;2024-03-08T05:12:47;97458.97;;;-3.14;67.77
43741;BME280;29352;48.708;9.290;2024-03-08T05:15:13;97472.44;;;-3.18;68.17
43741;BME280;29352;48.708;9.290;2024-03-08T05:17:38;97462.25;;;-3.21;68.26
43741;BME280;29352;48.708;9.290;2024-03-08T05:20:06;97469.09;;;-3.01;68.08
43741;BME280;29352;48.708;9.290;2024-03-08T05:22:35;97465.94;;;-3.04;67.80
43741;BME280;29352;48.708;9.290;2024-03-08T05:25:01;97461.59;;;-3.33;68.74
43741;BME280;29352;48.708;9.290;2024-03-08T05:27:27;97465.19;;;-3.44;68.31
43741;BME280;29352;48.708;9.290;2024-03-08T05:29:53;97472.19;;;-4.23;70.83
43741;BME280;29352;48.708;9.290;2024-03-08T05:32:19;97463.81;;;-3.87;69.74
43741;BME280;29352;48.708;9.290;2024-03-08T05:34:44;97461.59;;;-3.43;68.82
43741;BME280;29352;48.708;9.290;2024-03-08T05:37:10;97458.19;;;-3.63;69.06
43741;BME280;29352;48.708;9.290;2024-03-08T05:39:36;97459.41;;;-3.76;69.83
43741;BME280;29352;48.708;9.290;2024-03-08T05:42:02;97456.09;;;-3.49;69.37
43741;BME280;29352;48.708;9.290;2024-03-08T05:44:27;97458.31;;;-3.64;69.76
43741;BME280;29352;48.708;9.290;2024-03-08T05:46:54;97455.38;;;-3.03;67.83
43741;BME280;29352;48.708;9.290;2024-03-08T05:49:21;97455.91;;;-2.99;67.96
43741;BME280;29352;48.708;9.290;2024-03-08T05:51:46;97440.69;;;-3.14;68.27
43741;BME280;29352;48.708;9.290;2024-03-08T05:54:13;97447.28;;;-3.19;68.42
43741;BME280;29352;48.708;9.290;2024-03-08T05:56:39;97448.63;;;-2.96;67.79
43741;BME280;29352;48.708;9.290;2024-03-08T05:59:10;97451.69;;;-3.10;67.65
43741;BME280;29352;48.708;9.290;2024-03-08T06:01:36;97455.94;;;-3.28;68.18
43741;BME280;29352;48.708;9.290;2024-03-08T06:04:03;97456.09;;;-3.20;67.76
43741;BME280;29352;48.708;9.290;2024-03-08T06:06:29;97449.19;;;-3.12;68.19
43741;BME280;29352;48.708;9.290;2024-03-08T06:08:55;97451.53;;;-3.09;68.04
43741;BME280;29352;48.708;9.290;2024-03-08T06:11:24;97454.00;;;-2.60;67.40
43741;BME280;29352;48.708;9.290;2024-03-08T06:13:52;97452.56;;;-2.72;66.70
43741;BME280;29352;48.708;9.290;2024-03-08T06:16:25;97454.31;;;-2.35;66.16
43741;BME280;29352;48.708;9.290;2024-03-08T06:18:57;97456.78;;;-2.62;66.43
43741;BME280;29352;48.708;9.290;2024-03-08T06:21:24;97449.97;;;-2.45;66.43
43741;BME280;29352;48.708;9.290;2024-03-08T06:23:53;97457.19;;;-3.33;68.38
43741;BME280;29352;48.708;9.290;2024-03-08T06:26:23;97459.47;;;-2.91;68.08
43741;BME280;29352;48.708;9.290;2024-03-08T06:28:50;97460.72;;;-2.95;68.14
43741;BME280;29352;48.708;9.290;2024-03-08T06:31:16;97456.47;;;-3.05;67.83
43741;BME280;29352;48.708;9.290;2024-03-08T06:33:42;97465.72;;;-3.30;69.15
43741;BME280;29352;48.708;9.290;2024-03-08T06:36:09;97460.22;;;-3.57;70.49
43741;BME280;29352;48.708;9.290;2024-03-08T06:38:34;97467.50;;;-3.50;69.59
43741;BME280;29352;48.708;9.290;2024-03-08T06:41:00;97457.19;;;-3.13;68.49
43741;BME280;29352;48.708;9.290;2024-03-08T06:43:28;97454.13;;;-2.52;67.14
43741;BME280;29352;48.708;9.290;2024-03-08T06:45:59;97449.06;;;-2.63;66.87
43741;BME280;29352;48.708;9.290;2024-03-08T06:48:24;97464.47;;;-3.36;68.54
43741;BME280;29352;48.708;9.290;2024-03-08T06:50:50;97459.81;;;-3.33;69.24
43741;BME280;29352;48.708;9.290;2024-03-08T06:53:16;97453.84;;;-2.86;68.47
43741;BME280;29352;48.708;9.290;2024-03-08T06:55:44;97456.38;;;-3.23;68.76
43741;BME280;29352;48.708;9.290;2024-03-08T06:58:10;97458.94;;;-3.04;69.44
43741;BME280;29352;48.708;9.290;2024-03-08T07:00:36;97453.75;;;-2.67;68.44
43741;BME280;29352;48.708;9.290;2024-03-08T07:03:03;97450.56;;;-3.07;69.22
43741;BME280;29352;48.708;9.290;2024-03-08T07:05:29;97461.06;;;-3.46;69.95
43741;BME280;29352;48.708;9.290;2024-03-08T07:07:56;97457.41;;;-2.50;68.58
43741;BME280;29352;48.708;9.290;2024-03-08T07:10:22;97450.78;;;-2.17;67.35
43741;BME280;29352;48.708;9.290;2024-03-08T07:12:50;97450.69;;;-2.90;69.30
43741;BME280;29352;48.708;9.290;2024-03-08T07:15:16;97448.59;;;-2.21;67.63
43741;BME280;29352;48.708;9.290;2024-03-08T07:17:48;97444.25;;;-2.30;67.38
43741;BME280;29352;48.708;9.290;2024-03-08T07:20:14;97444.91;;;-2.56;68.15
43741;BME280;29352;48.708;9.290;2024-03-08T07:22:47;97439.06;;;-2.13;67.62
43741;BME280;29352;48.708;9.290;2024-03-08T07:25:16;97445.06;;;-2.57;67.90
43741;BME280;29352;48.708;9.290;2024-03-08T07:27:54;97442.84;;;-2.90;69.09
43741;BME280;29352;48.708;9.290;2024-03-08T07:30:22;97442.69;;;-2.51;69.23
43741;BME280;29352;48.708;9.290;2024-03-08T07:33:06;97441.00;;;-1.97;67.84
43741;BME280;29352;48.708;9.290;2024-03-08T07:35:40;97435.16;;;-2.26;68.77
43741;BME280;29352;48.708;9.290;2024-03-08T07:38:08;97439.41;;;-2.25;68.40
43741;BME280;29352;48.708;9.290;2024-03-08T07:40:35;97438.34;;;-2.32;68.96
43741;BME280;29352;48.708;9.290;2024-03-08T07:43:04;97437.81;;;-1.91;67.67
43741;BME280;29352;48.708;9.290;2024-03-08T07:45:29;97442.94;;;-2.44;68.78
43741;BME280;29352;48.708;9.290;2024-03-08T07:47:56;97435.34;;;-2.38;68.50
43741;BME280;29352;48.708;9.290;2024-03-08T07:50:21;97429.66;;;-2.05;68.31
43741;BME280;29352;48.708;9.290;2024-03-08T07:52:48;97431.19;;;-1.85;66.85
43741;BME280;29352;48.708;9.290;2024-03-08T07:55:14;97431.69;;;-1.28;65.29
43741;BME280;29352;48.708;9.290;2024-03-08T07:57:40;97430.78;;;-1.90;66.78
43741;BME280;29352;48.708;9.290;2024-03-08T08:00:06;97432.84;;;-1.30;66.04
43741;BME280;29352;48.708;9.290;2024-03-08T08:02:36;97426.03;;;-2.22;67.78
43741;BME280;29352;48.708;9.290;2024-03-08T08:05:02;97425.19;;;-1.24;65.31
43741;BME280;29352;48.708;9.290;2024-03-08T08:07:29;97432.78;;;-2.47;67.27
43741;BME280;29352;48.708;9.290;2024-03-08T08:09:55;97431.25;;;-1.77;66.37
43741;BME280;29352;48.708;9.290;2024-03-08T08:12:21;97426.69;;;-1.75;66.32
43741;BME280;29352;48.708;9.290;2024-03-08T08:14:46;97424.97;;;-2.02;66.01
43741;BME280;29352;48.708;9.290;2024-03-08T08:17:12;97418.44;;;-1.98;66.77
43741;BME280;29352;48.708;9.290;2024-03-08T08:19:37;97425.81;;;-1.48;65.20
43741;BME280;29352;48.708;9.290;2024-03-08T08:22:06;97417.78;;;-1.64;66.06
43741;BME280;29352;48.708;9.290;2024-03-08T08:24:34;97414.84;;;-1.25;65.95
43741;BME280;29352;48.708;9.290;2024-03-08T08:27:02;97408.59;;;-1.32;65.44
43741;BME280;29352;48.708;9.290;2024-03-08T08:29:28;97411.97;;;-1.14;64.23
43741;BME280;29352;48.708;9.290;2024-03-08T08:31:58;97407.16;;;-1.45;65.77
43741;BME280;29352;48.708;9.290;2024-03-08T08:34:25;97398.19;;;-0.98;64.75
43741;BME280;29352;48.708;9.290;2024-03-08T08:36:52;97402.78;;;-1.18;64.77
43741;BME280;29352;48.708;9.290;2024-03-08T08:39:18;97396.97;;;-0.78;64.47
43741;BME280;29352;48.708;9.290;2024-03-08T08:41:44;97399.84;;;-0.55;63.91
43741;BME280;29352;48.708;9.290;2024-03-08T08:44:10;97401.75;;;-2.32;67.38
43741;BME280;29352;48.708;9.290;2024-03-08T08:46:38;97406.00;;;-1.50;65.73
43741;BME280;29352;48.708;9.290;2024-03-08T08:49:05;97394.69;;;-0.73;64.53
43741;BME280;29352;48.708;9.290;2024-03-08T08:51:32;97389.56;;;-0.48;63.30
43741;BME280;29352;48.708;9.290;2024-03-08T08:53:59;97391.44;;;-0.32;63.92
43741;BME280;29352;48.708;9.290;2024-03-08T08:56:25;97388.94;;;-0.42;63.40
43741;BME280;29352;48.708;9.290;2024-03-08T08:58:51;97403.13;;;-1.39;65.05
43741;BME280;29352;48.708;9.290;2024-03-08T09:01:20;97393.19;;;-1.35;65.19
43741;BME280;29352;48.708;9.290;2024-03-08T09:03:46;97385.69;;;-0.78;64.97
43741;BME280;29352;48.708;9.290;2024-03-08T09:06:12;97390.72;;;-1.73;65.93
43741;BME280;29352;48.708;9.290;2024-03-08T09:08:42;97390.00;;;-0.95;64.70
43741;BME280;29352;48.708;9.290;2024-03-08T09:11:09;97387.47;;;-0.36;63.71
43741;BME280;29352;48.708;9.290;2024-03-08T09:13:35;97380.88;;;-0.49;62.60
43741;BME280;29352;48.708;9.290;2024-03-08T09:16:02;97378.94;;;-0.38;62.64
43741;BME280;29352;48.708;9.290;2024-03-08T09:18:30;97383.44;;;-0.23;62.69
43741;BME280;29352;48.708;9.290;2024-03-08T09:20:57;97373.38;;;-0.43;63.42
43741;BME280;29352;48.708;9.290;2024-03-08T09:23:23;97373.50;;;0.22;61.97
43741;BME280;29352;48.708;9.290;2024-03-08T09:25:56;97385.56;;;-0.26;62.74
43741;BME280;29352;48.708;9.290;2024-03-08T09:28:23;97373.00;;;-0.57;63.37
43741;BME280;29352;48.708;9.290;2024-03-08T09:30:49;97374.50;;;-1.14;64.81
43741;BME280;29352;48.708;9.290;2024-03-08T09:33:14;97363.06;;;-0.29;63.29
43741;BME280;29352;48.708;9.290;2024-03-08T09:35:45;97365.00;;;-0.39;63.22
43741;BME280;29352;48.708;9.290;2024-03-08T09:38:12;97373.28;;;-0.09;61.99
43741;BME280;29352;48.708;9.290;2024-03-08T09:40:41;97358.28;;;0.26;61.31
43741;BME280;29352;48.708;9.290;2024-03-08T09:43:06;97358.09;;;0.52;60.72
43741;BME280;29352;48.708;9.290;2024-03-08T09:45:36;97359.78;;;-0.39;62.59
43741;BME280;29352;48.708;9.290;2024-03-08T09:48:09;97358.38;;;-0.01;62.00
43741;BME280;29352;48.708;9.290;2024-03-08T09:50:42;97358.28;;;0.26;60.91
43741;BME280;29352;48.708;9.290;2024-03-08T09:53:08;97356.72;;;-0.10;61.74
43741;BME280;29352;48.708;9.290;2024-03-08T09:55:37;97356.78;;;0.47;60.77
43741;BME280;29352;48.708;9.290;2024-03-08T09:58:08;97353.63;;;0.03;61.79
43741;BME280;29352;48.708;9.290;2024-03-08T10:00:43;97339.47;;;0.94;59.45
43741;BME280;29352;48.708;9.290;2024-03-08T10:03:09;97346.25;;;-0.02;61.34
43741;BME280;29352;48.708;9.290;2024-03-08T10:05:36;97331.81;;;0.68;60.52
43741;BME280;29352;48.708;9.290;2024-03-08T10:08:02;97337.34;;;-0.33;61.95
43741;BME280;29352;48.708;9.290;2024-03-08T10:10:30;97334.47;;;0.27;60.80
43741;BME280;29352;48.708;9.290;2024-03-08T10:12:56;97336.75;;;0.71;59.86
43741;BME280;29352;48.708;9.290;2024-03-08T10:15:21;97329.13;;;0.92;59.21
43741;BME280;29352;48.708;9.290;2024-03-08T10:17:47;97329.66;;;-0.27;61.66
43741;BME280;29352;48.708;9.290;2024-03-08T10:20:17;97334.25;;;0.86;59.67
43741;BME280;29352;48.708;9.290;2024-03-08T10:22:44;97338.25;;;0.41;60.41
43741;BME280;29352;48.708;9.290;2024-03-08T10:25:11;97319.53;;;0.60;59.66
43741;BME280;29352;48.708;9.290;2024-03-08T10:27:40;97315.63;;;1.12;59.05
43741;BME280;29352;48.708;9.290;2024-03-08T10:30:15;97317.88;;;1.54;58.66
43741;BME280;29352;48.708;9.290;2024-03-08T10:32:47;97317.38;;;0.23;60.93
43741;BME280;29352;48.708;9.290;2024-03-08T10:35:13;97306.91;;;1.42;59.06
43741;BME280;29352;48.708;9.290;2024-03-08T10:37:46;97311.66;;;0.19;60.96
43741;BME280;29352;48.708;9.290;2024-03-08T10:40:19;97302.03;;;1.31;59.11
43741;BME280;29352;48.708;9.290;2024-03-08T10:42:57;97299.00;;;1.74;58.22
43741;BME280;29352;48.708;9.290;2024-03-08T10:45:38;97289.53;;;1.64;58.39
43741;BME280;29352;48.708;9.290;2024-03-08T10:51:02;97297.50;;;1.79;57.57
43741;BME280;29352;48.708;9.290;2024-03-08T10:53:29;97298.81;;;2.06;57.32
43741;BME280;29352;48.708;9.290;2024-03-08T10:55:57;97296.00;;;2.46;55.87
43741;BME280;29352;48.708;9.290;2024-03-08T10:58:27;97301.75;;;1.88;57.33
43741;BME280;29352;48.708;9.290;2024-03-08T11:00:56;97302.84;;;1.94;57.37
43741;BME280;29352;48.708;9.290;2024-03-08T11:06:07;97291.09;;;2.43;56.63
43741;BME280;29352;48.708;9.290;2024-03-08T11:08:37;97290.06;;;1.83;57.77
43741;BME280;29352;48.708;9.290;2024-03-08T11:11:04;97292.22;;;1.25;58.19
43741;BME280;29352;48.708;9.290;2024-03-08T11:13:38;97284.16;;;1.81;58.48
43741;BME280;29352;48.708;9.290;2024-03-08T11:16:36;97284.47;;;2.47;56.79
43741;BME280;29352;48.708;9.290;2024-03-08T11:19:00;97277.22;;;2.11;58.30
43741;BME280;29352;48.708;9.290;2024-03-08T11:21:31;97264.16;;;2.85;56.19
43741;BME280;29352;48.708;9.290;2024-03-08T11:24:10;97266.31;;;3.26;56.33
43741;BME280;29352;48.708;9.290;2024-03-08T11:26:40;97265.28;;;2.23;57.61
43741;BME280;29352;48.708;9.290;2024-03-08T11:34:38;97264.78;;;2.57;57.20
43741;BME280;29352;48.708;9.290;2024-03-08T11:37:10;97261.31;;;3.01;55.22
43741;BME280;29352;48.708;9.290;2024-03-08T11:39:47;97255.25;;;2.71;55.53
43741;BME280;29352;48.708;9.290;2024-03-08T11:42:19;97259.59;;;2.64;56.94
43741;BME280;29352;48.708;9.290;2024-03-08T11:44:47;97251.03;;;2.92;55.99
43741;BME280;29352;48.708;9.290;2024-03-08T11:47:14;97248.88;;;3.10;55.01
43741;BME280;29352;48.708;9.290;2024-03-08T11:49:41;97230.28;;;3.33;55.05
43741;BME280;29352;48.708;9.290;2024-03-08T11:52:16;97238.16;;;2.67;56.53
43741;BME280;29352;48.708;9.290;2024-03-08T11:54:54;97230.84;;;3.28;56.82
43741;BME280;29352;48.708;9.290;2024-03-08T11:57:23;97231.00;;;3.63;55.15
43741;BME280;29352;48.708;9.290;2024-03-08T11:59:52;97217.22;;;3.46;55.18
43741;BME280;29352;48.708;9.290;2024-03-08T12:02:19;97211.34;;;3.66;55.45
43741;BME280;29352;48.708;9.290;2024-03-08T12:04:45;97207.19;;;4.06;54.52
43741;BME280;29352;48.708;9.290;2024-03-08T12:07:14;97204.47;;;2.48;57.68
43741;BME280;29352;48.708;9.290;2024-03-08T12:09:44;97207.59;;;2.88;56.21
43741;BME280;29352;48.708;9.290;2024-03-08T12:12:12;97197.88;;;3.03;57.67
43741;BME280;29352;48.708;9.290;2024-03-08T12:14:39;97195.66;;;4.07;54.49
43741;BME280;29352;48.708;9.290;2024-03-08T12:17:09;97183.47;;;3.20;56.11
43741;BME280;29352;48.708;9.290;2024-03-08T12:19:36;97182.94;;;3.46;56.04
43741;BME280;29352;48.708;9.290;2024-03-08T12:22:09;97179.75;;;3.72;54.79
43741;BME280;29352;48.708;9.290;2024-03-08T12:24:35;97179.81;;;4.07;55.24
43741;BME280;29352;48.708;9.290;2024-03-08T12:27:17;97179.69;;;4.22;54.63
43741;BME280;29352;48.708;9.290;2024-03-08T12:29:44;97190.25;;;3.44;56.21
43741;BME280;29352;48.708;9.290;2024-03-08T12:32:10;97177.03;;;3.08;56.34
43741;BME280;29352;48.708;9.290;2024-03-08T12:34:36;97168.28;;;4.15;54.25
43741;BME280;29352;48.708;9.290;2024-03-08T12:37:02;97171.47;;;3.18;55.64
43741;BME280;29352;48.708;9.290;2024-03-08T12:39:29;97164.94;;;3.99;54.94
43741;BME280;29352;48.708;9.290;2024-03-08T12:41:56;97160.47;;;4.00;55.31
43741;BME280;29352;48.708;9.290;2024-03-08T12:44:27;97160.22;;;2.58;56.71
43741;BME280;29352;48.708;9.290;2024-03-08T12:46:54;97159.69;;;3.56;56.11
43741;BME280;29352;48.708;9.290;2024-03-08T12:49:20;97146.81;;;4.59;55.17
43741;BME280;29352;48.708;9.290;2024-03-08T12:51:48;97149.28;;;4.67;53.72
43741;BME280;29352;48.708;9.290;2024-03-08T12:54:14;97139.88;;;4.23;54.40
43741;BME280;29352;48.708;9.290;2024-03-08T12:56:40;97142.22;;;3.77;55.68
43741;BME280;29352;48.708;9.290;2024-03-08T12:59:07;97141.97;;;4.00;55.29
43741;BME280;29352;48.708;9.290;2024-03-08T13:01:34;97127.97;;;4.06;54.89
43741;BME280;29352;48.708;9.290;2024-03-08T13:04:03;97119.31;;;3.56;56.00
43741;BME280;29352;48.708;9.290;2024-03-08T13:06:32;97123.81;;;4.18;54.30
43741;BME280;29352;48.708;9.290;2024-03-08T13:08:58;97121.16;;;3.84;55.04
43741;BME280;29352;48.708;9.290;2024-03-08T13:11:26;97121.31;;;4.45;53.92
43741;BME280;29352;48.708;9.290;2024-03-08T13:13:52;97115.75;;;4.33;53.57
43741;BME280;29352;48.708;9.290;2024-03-08T13:16:20;97103.56;;;4.32;53.38